ADDS METAR Data

Data at: 1025 UTC 16 Aug 2018

EDDW 161020Z 20010KT 170V230 9999 SCT032 24/15 Q1015 NOSIG
EDDW 160950Z 22011KT 9999 SCT031 23/15 Q1015 NOSIG
EDDW 160920Z 22012KT 9999 FEW028 SCT031 23/15 Q1015 NOSIG
EDDW 160850Z 22011KT 190V250 9999 FEW028 SCT033 23/15 Q1016 NOSIG
EDDW 160820Z 21011KT 180V250 9999 FEW028 22/15 Q1016 NOSIG
EDDW 160750Z 22012KT CAVOK 22/15 Q1016 NOSIG
EDDW 160720Z 21008KT 170V240 CAVOK 21/15 Q1016 NOSIG
EDDW 160650Z 20007KT 180V240 9999 FEW044 21/15 Q1016 NOSIG
EDDW 160620Z 18007KT CAVOK 20/16 Q1016 NOSIG
EDDW 160550Z 18007KT CAVOK 19/16 Q1016 NOSIG
EDDW 160520Z 18006KT CAVOK 17/15 Q1016 NOSIG
EDDW 160450Z 18005KT CAVOK 17/15 Q1016 NOSIG
EDDW 160420Z 19005KT CAVOK 17/15 Q1016 NOSIG
EDDW 160350Z 19006KT CAVOK 18/15 Q1016 NOSIG
EDDW 160320Z 18006KT CAVOK 18/15 Q1016
EDDW 160250Z 18005KT CAVOK 18/16 Q1017
EDDW 160220Z 17005KT CAVOK 18/16 Q1017
EDDW 160150Z 20004KT CAVOK 19/16 Q1017
EDDW 160120Z 20003KT CAVOK 19/16 Q1017
EDDW 160050Z 20004KT CAVOK 19/16 Q1017
EDDW 160020Z 21003KT CAVOK 20/16 Q1017
EDDW 152350Z 21003KT CAVOK 20/16 Q1017
EDDW 152320Z 21004KT CAVOK 20/15 Q1017
EDDW 152250Z 20006KT CAVOK 20/15 Q1017
EDDW 152220Z 20005KT CAVOK 20/15 Q1017
EDDW 152150Z 21005KT CAVOK 21/15 Q1017
EDDW 152120Z 19005KT CAVOK 20/15 Q1017
EDDW 152050Z 18005KT CAVOK 20/15 Q1017 NOSIG
EDDW 152020Z 20004KT CAVOK 21/15 Q1017 NOSIG
EDDW 151950Z 21003KT CAVOK 21/15 Q1017 NOSIG
EDDW 151920Z 20005KT CAVOK 22/15 Q1017 NOSIG
EDDW 151850Z 21004KT CAVOK 22/15 Q1017 NOSIG
EDDW 151820Z 21005KT CAVOK 23/15 Q1017 NOSIG
EDDW 151750Z 21005KT CAVOK 23/15 Q1017 NOSIG
EDDW 151720Z 21005KT CAVOK 23/15 Q1017 NOSIG
EDDW 151650Z 23007KT CAVOK 24/15 Q1017 NOSIG
EDDW 151620Z 24010KT 9999 FEW042 BKN069 24/15 Q1017 NOSIG
EDDW 151550Z 23010KT 9999 FEW042 BKN069 24/15 Q1017 NOSIG
EDDW 151520Z 24010KT 9999 FEW042 BKN066 24/14 Q1018 NOSIG
EDDW 151450Z 22009KT 9999 FEW041 BKN065 24/14 Q1017 NOSIG
EDDW 151420Z 22008KT 9999 FEW041 BKN056 24/14 Q1018 NOSIG
EDDW 151350Z 23009KT 200V260 9999 FEW041 SCT049 BKN064 24/14 Q1018 NOSIG
EDDW 151320Z 24009KT 9999 FEW041 BKN058 24/14 Q1018 NOSIG
EDDW 151250Z 24010KT 200V270 9999 FEW040 BKN060 24/14 Q1018 NOSIG
EDDW 151220Z 22010KT 190V270 9999 FEW037 SCT060 BKN250 24/14 Q1018 NOSIG
EDDW 151150Z 23009KT 190V250 9999 FEW033 BKN060 23/15 Q1018 NOSIG
EDDW 151120Z 22009KT 160V240 9999 FEW032 BKN061 23/15 Q1018 NOSIG
EDDW 151050Z 20008KT 160V220 9999 FEW028 BKN061 22/15 Q1018 NOSIG
EDDW 151020Z 20007KT 170V230 9999 FEW024 BKN058 21/15 Q1018 NOSIG
EDDW 150950Z 22007KT 180V240 9999 FEW020 BKN057 21/15 Q1018 NOSIG
EDDW 150920Z 21006KT 180V260 9999 FEW037 BKN063 21/16 Q1018 NOSIG
EDDW 150850Z 21005KT 170V240 9999 SCT037 BKN057 19/16 Q1018 NOSIG
EDDW 150820Z 22005KT 9999 BKN037 19/16 Q1018 NOSIG
EDDW 150750Z 23007KT 9000 FEW042 BKN061 19/15 Q1018 NOSIG
EDDW 150720Z 24007KT 9999 FEW041 BKN063 18/15 Q1017 NOSIG
EDDW 150650Z 23006KT 9999 FEW039 BKN055 18/15 Q1017 NOSIG
EDDW 150620Z 23007KT CAVOK 18/15 Q1017 NOSIG
EDDW 150550Z 21004KT 170V240 9999 FEW048 BKN220 17/15 Q1017 NOSIG
EDDW 150520Z 21004KT 9999 FEW015 BKN220 16/14 Q1016 NOSIG
EDDW 150450Z 21005KT 9999 FEW017 BKN110 16/14 Q1016 NOSIG
EDDW 150420Z 23005KT 9999 SCT020 BKN110 15/14 Q1016 NOSIG
EDDW 150350Z 23004KT 9999 FEW028 BKN110 15/14 Q1016 NOSIG
EDDW 150320Z 22004KT 9999 BKN022 15/14 Q1016
EDDW 150250Z 22003KT CAVOK 15/13 Q1016
EDDW 150220Z 22003KT CAVOK 15/14 Q1016
EDDW 150150Z 22002KT CAVOK 15/13 Q1016
EDDW 150120Z 21003KT CAVOK 16/14 Q1016
EDDW 150050Z 22004KT CAVOK 16/14 Q1016
EDDW 150020Z 23004KT CAVOK 15/14 Q1016
EDDW 142350Z 24005KT CAVOK 15/14 Q1016
EDDW 142320Z 24005KT CAVOK 15/13 Q1016
EDDW 142250Z 26004KT CAVOK 15/13 Q1016